Tiempo atmosférico en la estación meteorológica de Zumarraga, Gipuzkoa (420 m.)



Fecha
DESCASC
Temp. máxima en grados centígrados (hora)
DESCASC
Temp. mínima en grados centígrados (hora)
DESCASC
Temp. media en grados centígrados
DESCASC
Racha de viento máxima en m/sg (hora)
DESCASC
Velocidad máxima media en intervalos de 10 minutos(hora)
DESCASC
Precipitaciones diarias en mm
DESCASC
Precipitaciones de 00:00 a 06:00 en mm
DESCASC
Precipitaciones de 06:00 a 12:00 en mm
DESCASC
Precipitaciones de 12:00 a 18:00 en mm
DESCASC
Precipitaciones de 18:00 a 24:00 en mm
DESCASC
17-10-2019 19.9 (16:50) 11.6 (08:50) 15.8 11.67 (05:50) 4.72 (18:30) 2.3 0.1 2.1 0.1 0
16-10-2019 19.6 (16:50) 12.7 (00:40) 16.2 12.5 (10:40) 2.5 (06:20) 0 0 0 0 0
15-10-2019 16 (15:10) 5.9 (07:10) 11 8.89 (15:40) 1.94 (14:40) 0.3 0.2 0.1 0 0
14-10-2019 21.7 (13:10) 8.1 (23:30) 14.9 14.44 (19:10) 6.67 (19:10) 12.9 0 0 7.3 5.6
13-10-2019 25 (16:40) 17.4 (00:00) 21.2 14.72 (08:10) 4.72 (08:10) 0 0 0 0 0
12-10-2019 24.3 (17:00) 17.7 (00:00) 21 12.5 (23:40) 4.17 (18:40) 2.5 0 0 0 2.5
11-10-2019 24.8 (16:20) 9.9 (00:00) 17.3 8.89 (11:40) 3.33 (12:00) 0 0 0 0 0
10-10-2019 19.2 (16:00) 6.4 (00:00) 12.8 4.72 (17:00) 2.22 (17:40) 0 0 0 0 0
09-10-2019 16.5 (15:20) 9.6 (00:00) 13.1 9.44 (16:40) 4.72 (16:40) 0.7 0.5 0.1 0.1 0
08-10-2019 23.8 (15:30) 7.7 (00:00) 15.7 7.5 (19:30) 3.89 (19:30) 1.1 0 0.1 0 1
07-10-2019 21 (16:30) 7.6 (00:00) 14.3 4.72 (17:20) 2.22 (15:30) 0.1 0 0.1 0 0
06-10-2019 14.7 (13:10) 11 (00:00) 12.8 8.06 (19:50) 3.89 (15:00) 4.4 0 0 3.4 1
05-10-2019 17.3 (16:20) 11.5 (00:00) 14.4 4.44 (12:00) 1.94 (12:00) 0.5 0.5 0 0 0
04-10-2019 16.6 (15:30) 11.6 (00:00) 14.1 5.83 (12:20) 3.61 (12:50) 0.2 0 0.1 0 0.1
03-10-2019 19.7 (15:50) 7.5 (00:00) 13.6 7.78 (18:40) 3.33 (15:20) 0.2 0.1 0.1 0 0
02-10-2019 14.2 (00:00) 11.1 (00:00) 12.7 12.22 (01:20) 7.22 (01:20) 14.9 1.2 6.8 6.5 0.4
01-10-2019 21.2 (12:40) 13.3 (00:00) 17.3 9.17 (18:50) 4.72 (18:30) 0.2 0 0 0 0.2
30-09-2019 25.7 (16:10) 12.4 (00:00) 19.1 4.17 (15:50) 2.22 (15:30) 0 0 0 0 0
29-09-2019 27.8 (16:10) 13 (00:00) 20.4 8.89 (18:10) 4.44 (14:00) 0 0 0 0 0
28-09-2019 23.3 (16:30) 12.7 (00:00) 18 3.89 (15:10) 1.39 (16:50) 0.1 0.1 0 0 0
27-09-2019 21.9 (13:30) 10.6 (00:00) 16.3 7.5 (12:30) 3.06 (16:40) 0 0 0 0 0
26-09-2019 23.4 (16:00) 10.3 (00:00) 16.8 6.11 (18:20) 3.33 (18:20) 0 0 0 0 0
25-09-2019 19.3 (14:50) 11.1 (00:00) 15.2 8.06 (12:40) 4.17 (12:30) 0.8 0.8 0 0 0
24-09-2019 22.9 (14:20) 13.2 (00:00) 18 13.33 (04:40) 5.56 (15:20) 1.2 0 0 0 1.2
23-09-2019 21.1 (17:10) 10.6 (00:00) 15.9 5.28 (13:50) 2.22 (14:30) 0.2 0.1 0 0.1 0
22-09-2019 20.8 (16:20) 11.9 (00:00) 16.3 8.33 (06:50) 3.89 (06:50) 14.1 4.4 9.5 0 0.2
21-09-2019 24.7 (14:50) 15.5 (00:00) 20.1 10.28 (10:40) 3.33 (10:30) 1.2 1.2 0 0 0
20-09-2019 26.4 (15:30) 14 (00:00) 20.2 12.22 (20:40) 3.61 (21:20) 0 0 0 0 0

Gráficas

Temp. máximas Temp. mínimas Temp. medias Precipitaciones Rachas de viento máximas Velocidades máximas media en intervalos de 10 minutos

Datos horarios

Fecha y hora oficial Temperatura (ºC) Velocidad del viento (km/h) Dirección del viento Racha (km/h) Dirección de racha Precipitación (mm) Presión (hPa) Tendencia (hPa) Humedad (%)
2019-10-19 23:00:00 12.4 3 Oeste 14 Noroeste 0.6 953.6 0.2 97
2019-10-19 22:00:00 13.3 3 Oeste 14 Oeste 0 953.5 -0.4 87
2019-10-19 21:00:00 16 0 Calma 18 Sudeste 0 953.3 -0.2 51
2019-10-19 20:00:00 15.2 0 Calma 4 Nordeste 0 953.4 -0.9 55
2019-10-19 19:00:00 16.2 0 Calma 15 Sudeste 0 953.9 -0.7 51
2019-10-19 18:00:00 17.1 2 Sudeste 17 Este 0 953.5 -2 48
2019-10-19 17:00:00 17.7 4 Sudeste 22 Sudeste 0 954.3 -1.8 47
2019-10-19 16:00:00 18.6 3 Sudeste 21 Sudeste 0 954.6 -2.5 47
2019-10-19 15:00:00 17.5 5 Sudeste 20 Sudeste 0 955.5 -2 51
2019-10-19 14:00:00 16.4 0 Calma 9 Sudeste 0 956.1 -1.3 55
2019-10-19 13:00:00 16.4 0 Calma 11 Oeste 0 957.1 -1.2 52
2019-10-19 12:00:00 16 0 Calma 12 Sudeste 0 957.5 -0.5 54
2019-10-19 11:00:00 15.1 0 Calma 25 Sudeste 0 957.4 -0.8 53
2019-10-19 10:00:00 14.9 4 Sur 27 Sur 0 958.3 -0.2 53
2019-10-19 09:00:00 14.5 2 Norte 21 Sudoeste 0 958 -0.5 55
2019-10-19 08:00:00 14.4 0 Calma 26 Sur 0 958.2 -0.8 55
2019-10-19 07:00:00 14.6 2 Sudeste 37 Sudoeste 0 958.5 -1.1 53
2019-10-19 06:00:00 15 0 Calma 31 Sur 0 958.5 -1.4 50
2019-10-19 05:00:00 14.8 6 Noroeste 28 Noroeste 0 959 -1.4 53
2019-10-19 04:00:00 14.7 0 Calma 19 Sudoeste 0 959.6 -1.2 54
2019-10-19 03:00:00 14.8 0 Calma 30 Oeste 0 959.9 -0.9 53
2019-10-19 02:00:00 15.4 3 Oeste 26 Noroeste 0 960.4 -0.6 53
2019-10-19 01:00:00 15.8 3 Oeste 24 Oeste 0 960.8 -0.9 53
2019-10-19 00:00:00 14.9 2 Sudoeste 18 Sudeste 0 960.8 -0.9 61
2019-10-18 23:00:00 11.7 0 Calma 6 Sudoeste 0 961 -1.3 97
2019-10-18 22:00:00 11.8 0 Calma 5 Sudeste 0 961.7 -0.9 96
2019-10-18 21:00:00 12.5 0 Calma 5 Sudeste 0 961.7 -1.3 92
2019-10-18 20:00:00 12.9 0 Calma 8 Norte 0 962.3 -1.4 88
2019-10-18 19:00:00 13.9 0 Calma 9 Norte 0 962.6 -1.4 82
2019-10-18 18:00:00 14.5 0 Calma 10 Noroeste 0 963 -1.7 80
2019-10-18 17:00:00 15.3 3 Este 9 Este 0 963.7 -1.9 81
2019-10-18 16:00:00 15.4 3 Sudeste 6 Sudeste 0 964 -2 81
2019-10-18 15:00:00 14.8 0 Calma 7 Sudeste 0 964.7 -1.7 86
2019-10-18 14:00:00 13.9 0 Calma 6 Este 0 965.6 -1 94
2019-10-18 13:00:00 12.9 0 Calma 5 Este 0 966 -0.5 99
2019-10-18 12:00:00 12 0 Calma 6 Este 0.1 966.4 0.6 99
2019-10-18 11:00:00 12.2 0 Calma 5 Este 0 966.6 1 99
2019-10-18 10:00:00 11.9 0 Calma 8 Noroeste 0.1 966.5 1.4 99
2019-10-18 09:00:00 11.9 0 Calma 13 Noroeste 0.1 965.8 1.2 99
2019-10-18 08:00:00 12.4 3 Oeste 15 Oeste 0.4 965.6 1.5 99
2019-10-18 07:00:00 12.7 5 Oeste 20 Noroeste 0 965.1 1.2 99
2019-10-18 06:00:00 12.7 6 Oeste 27 Oeste 0 964.6 0.5 99
2019-10-18 05:00:00 12.8 2 Oeste 9 Oeste 0 964.1 -0.1 99
2019-10-18 04:00:00 12.9 0 Calma 6 Norte 0 963.9 -0.5 99
2019-10-18 03:00:00 12.7 0 Calma 5 Oeste 0 964.1 -0.4 99
2019-10-18 02:00:00 13.1 0 Calma 11 Noroeste 0 964.2 -0.4 99
2019-10-18 01:00:00 13 2 Noroeste 9 Noroeste 0 964.4 -0.4 99
2019-10-18 00:00:00 13.1 0 Calma 3 Este 0 964.5 -0.9 99
2019-10-17 23:00:00 13.3 0 Calma 3 Este 0 964.6 -0.6 98
2019-10-17 22:00:00 13.7 0 Calma 4 Sudeste 0 964.8 0.3 96
2019-10-17 21:00:00 14.5 0 Calma 7 Norte 0 965.4 1.6 93
2019-10-17 20:00:00 14.8 2 Norte 20 Noroeste 0 965.2 1.2 91
2019-10-17 19:00:00 16.4 12 Oeste 28 Oeste 0 964.5 0.5 81
2019-10-17 18:00:00 19.5 2 Sudoeste 23 Oeste 0 963.8 -0.6 50
2019-10-17 17:00:00 19.6 4 Oeste 24 Oeste 0 964 -1.1 50
2019-10-17 16:00:00 19.6 3 Sudoeste 26 Sudoeste 0 964 -1.4 52
2019-10-17 15:00:00 19 4 Sudeste 30 Sudoeste 0 964.4 -1.1 56
2019-10-17 14:00:00 17.4 4 Sur 21 Sur 0.1 965.1 -0.1 61
2019-10-17 13:00:00 17 3 Sudoeste 32 Sur 0 965.4 0.9 63
2019-10-17 12:00:00 16 3 Sudoeste 25 Sudeste 0 965.5 1.5 64
2019-10-17 11:00:00 14.7 4 Sudeste 33 Sudeste 0 965.2 1.1 73
2019-10-17 10:00:00 14.3 8 Sur 42 Sur 0 964.5 0.7 73
2019-10-17 09:00:00 11.8 3 Sudeste 9 Sur 0 964 0.2 99
2019-10-17 08:00:00 11.9 0 Calma 10 Sudeste 1 964.1 0.3 98
2019-10-17 07:00:00 13.2 2 Sudeste 29 Sur 1.1 963.8 -0.3 82
2019-10-17 06:00:00 15.1 0 Calma 42 Oeste 0 963.8 -0.2 63
2019-10-17 05:00:00 16 2 Sur 24 Sudeste 0 963.8 -0.3 57
2019-10-17 04:00:00 15.4 0 Calma 36 Sudoeste 0.1 964.1 -0.2 63
2019-10-17 03:00:00 16.6 4 Sudoeste 29 Oeste 0 964 -0.9 52
2019-10-17 02:00:00 16.2 2 Este 28 Sudeste 0 964.1 -0.7 50
2019-10-17 01:00:00 17 5 Sudeste 31 Sur 0 964.3 -0.4 46
2019-10-17 00:00:00 17.6 0 Calma 27 Sur 0 964.9 0.3 45
2019-10-16 23:00:00 17 0 Calma 14 Sur 0 964.8 0.6 47
2019-10-16 22:00:00 16.8 0 Calma 16 Oeste 0 964.7 0.6 47
2019-10-16 21:00:00 17.5 7 Sur 30 Sur 0 964.6 0.6 46
2019-10-16 20:00:00 17.4 9 Sur 30 Sur 0 964.2 0.3 47
2019-10-16 19:00:00 17.7 3 Sur 24 Sur 0 964.1 -0.3 47
2019-10-16 18:00:00 18.4 0 Calma 20 Sudoeste 0 964 -0.7 46
2019-10-16 17:00:00 19.4 2 Oeste 27 Sur 0 963.9 -1.1 44
2019-10-16 16:00:00 18.2 2 Oeste 37 Sudeste 0 964.4 -1.3 46
2019-10-16 15:00:00 18 6 Sur 39 Oeste 0 964.7 -1.6 46
2019-10-16 14:00:00 17.2 6 Sur 36 Sur 0 965 -0.8 47
2019-10-16 13:00:00 15.4 3 Sur 31 Oeste 0 965.7 -0.6 50
2019-10-16 12:00:00 14.1 0 Calma 34 Sur 0 966.3 0.8 56
2019-10-16 11:00:00 13.7 2 Sudeste 45 Sur 0 965.8 0.5 56
2019-10-16 10:00:00 13.3 4 Sur 44 Sur 0 966.3 1 53
2019-10-16 09:00:00 13.2 5 Sur 39 Sudeste 0 965.5 0.2 51
2019-10-16 08:00:00 12.9 3 Sur 36 Sudeste 0 965.3 -0.5 53
2019-10-16 07:00:00 12.9 3 Sur 39 Sudeste 0 965.3 -0.8 55
2019-10-16 06:00:00 13 0 Calma 31 Sudeste 0 965.3 -0.8 57
2019-10-16 05:00:00 13.1 2 Sudoeste 28 Sur 0 965.8 -1 56
2019-10-16 04:00:00 13.3 7 Sur 35 Sudeste 0 966.1 -1 54
2019-10-16 03:00:00 13.4 0 Calma 30 Oeste 0 966.1 -1.1 53
2019-10-16 02:00:00 13.3 2 Sur 23 Sudeste 0 966.8 -0.7 52
2019-10-16 01:00:00 13 2 Sudeste 20 Sudoeste 0 967.1 -0.5 52
2019-10-16 00:00:00 13.1 2 Sudeste 24 Sudeste 0 967.2 -0.4 50
2019-10-15 23:00:00 13.1 0 Calma 14 Noroeste 0 967.5 -0.4 47
2019-10-15 22:00:00 12.9 2 Oeste 15 Sudoeste 0 967.6 0 47
2019-10-15 21:00:00 13.3 2 Sur 28 Sur 0 967.6 0.2 47
2019-10-15 20:00:00 13.9 3 Sur 23 Oeste 0 967.9 0.6 44
2019-10-15 19:00:00 14.3 2 Sudoeste 19 Sur 0 967.6 0.1 43
2019-10-15 18:00:00 15 0 Calma 21 Oeste 0 967.4 0 44
2019-10-15 17:00:00 15.3 0 Calma 16 Sur 0 967.3 -0.4 44
2019-10-15 16:00:00 15.5 3 Sudoeste 32 Sur 0 967.5 -0.4 44
2019-10-15 15:00:00 15.5 4 Noroeste 23 Oeste 0 967.4 -0.6 44
2019-10-15 14:00:00 15.3 0 Calma 15 Sudoeste 0 967.7 0.1 46
2019-10-15 13:00:00 13.7 2 Sur 15 Oeste 0 967.9 0.6 49
2019-10-15 12:00:00 12.9 0 Calma 12 Oeste 0 968 1.4 52
2019-10-15 11:00:00 11.5 0 Calma 13 Sur 0 967.6 1.5 60
2019-10-15 10:00:00 8.5 0 Calma 3 Noroeste 0 967.3 1.7 91
2019-10-15 09:00:00 6.6 0 Calma 2 Oeste 0 966.6 1.1 99
2019-10-15 08:00:00 6 0 Calma 0 Calma 0.1 966.1 1 99
2019-10-15 07:00:00 6.1 0 Calma 4 Sudeste 0 965.6 1 99
2019-10-15 06:00:00 6.5 2 Sudeste 7 Sudeste 0 965.5 0.9 99
2019-10-15 05:00:00 6.8 0 Calma 2 Sur 0 965.1 0.7 99
2019-10-15 04:00:00 6.9 0 Calma 10 Sudeste 0.1 964.6 0.8 99
2019-10-15 03:00:00 7.3 0 Calma 10 Noroeste 0.1 964.6 1 99
2019-10-15 02:00:00 7.4 0 Calma 6 Oeste 0 964.4 1.4 99
2019-10-15 01:00:00 7.7 0 Calma 9 Oeste 0 963.8 2.3 99
2019-10-15 00:00:00 8.2 0 Calma 32 Oeste 2.3 963.6 2.1 99
2019-10-14 23:00:00 8.5 20 Oeste 45 Oeste 1.2 963 2.8 97
2019-10-14 22:00:00 10.6 0 Calma 22 Oeste 0.3 961.5 2.5 92
2019-10-14 21:00:00 11 3 Sudeste 31 Noroeste 1.8 961.5 3 90
2019-10-14 20:00:00 13.9 10 Noroeste 52 Noroeste 0 960.2 1.9 58
2019-10-14 19:00:00 17.2 17 Oeste 35 Oeste 0 959 0.5 46
2019-10-14 18:00:00 18.7 10 Noroeste 30 Noroeste 0 958.5 0.6 42
2019-10-14 17:00:00 19.2 8 Noroeste 37 Oeste 0 958.3 0.3 43
2019-10-14 16:00:00 19.5 8 Noroeste 30 Oeste 0 958.5 1.6 47
2019-10-14 15:00:00 19.3 12 Noroeste 43 Oeste 0 957.9 0.6 52
2019-10-14 14:00:00 16.4 4 Noroeste 46 Sur 7.3 958 0.7 84
2019-10-14 13:00:00 20.8 8 Sudeste 44 Este 0 956.9 -0.6 60
2019-10-14 12:00:00 20.7 9 Sudeste 42 Sudeste 0 957.3 0.3 61
2019-10-14 11:00:00 19.4 13 Sudeste 46 Este 0 957.3 0.7 65
2019-10-14 10:00:00 18.3 9 Este 37 Sudeste 0 957.5 0.4 70
2019-10-14 09:00:00 18 7 Este 39 Nordeste 0 957 -0.8 70
2019-10-14 08:00:00 18 11 Este 47 Sudeste 0 956.6 -1.3 71
2019-10-14 07:00:00 17.9 12 Este 42 Este 0 957.1 -1.4 71
2019-10-14 06:00:00 18 8 Este 43 Sudeste 0 957.8 -2 70
2019-10-14 05:00:00 18.3 15 Sudeste 43 Sudeste 0 957.9 -2.4 70
2019-10-14 04:00:00 18 11 Sudeste 33 Este 0 958.5 -2.7 70
2019-10-14 03:00:00 18.4 6 Sudeste 30 Este 0 959.8 -1.2 67
2019-10-14 02:00:00 18.9 5 Sudeste 28 Sudeste 0 960.3 -1.3 67
2019-10-14 01:00:00 19.8 5 Sudeste 32 Sudeste 0 961.2 -0.2 64
2019-10-14 00:00:00 20.6 10 Sudeste 34 Sudeste 0 961 -0.2 61
2019-10-13 23:00:00 20.9 4 Sudeste 18 Sudeste 0 961.6 0.5 52
2019-10-13 22:00:00 21.4 5 Sudeste 21 Sudeste 0 961.4 0.4 36
2019-10-13 21:00:00 22.2 4 Sudeste 17 Sudeste 0 961.2 0 38
2019-10-13 20:00:00 21.3 0 Calma 3 Este 0 961.1 -0.3 43
2019-10-13 19:00:00 22.7 0 Calma 10 Sudeste 0 961 -0.8 40
2019-10-13 18:00:00 23.9 0 Calma 23 Este 0 961.2 -0.8 42
2019-10-13 17:00:00 24.5 6 Sudeste 36 Este 0 961.4 -1.1 44
2019-10-13 16:00:00 23.9 3 Sudeste 30 Este 0 961.8 -1.2 49
2019-10-13 15:00:00 24 9 Sudeste 31 Sudeste 0 962 -1.2 51
2019-10-13 14:00:00 22.3 9 Sudeste 25 Sudeste 0 962.5 -0.5 55
2019-10-13 13:00:00 20.3 8 Sudeste 38 Este 0 963 0.7 64
2019-10-13 12:00:00 19.4 12 Sudeste 38 Este 0 963.2 1.9 67
2019-10-13 11:00:00 19.8 10 Sudeste 36 Sudeste 0 963 2.3 66
2019-10-13 10:00:00 18.8 16 Sudeste 53 Sudeste 0 962.3 1.3 67
2019-10-13 09:00:00 17.7 12 Sudeste 53 Sudeste 0 961.3 0.8 70
2019-10-13 08:00:00 17.7 12 Sudeste 51 Sudeste 0 960.7 0 71
2019-10-13 07:00:00 17.7 12 Sudeste 39 Sudeste 0 961 -0.5 71
2019-10-13 06:00:00 17.5 6 Sudeste 35 Este 0 960.5 -1.3 72
2019-10-13 05:00:00 17.9 7 Sudeste 36 Sur 0 960.7 -1.6 68
2019-10-13 04:00:00 18.5 8 Sudeste 30 Sudeste 0 961.5 -0.8 67
2019-10-13 03:00:00 18.7 9 Sudeste 42 Este 0 961.8 -0.9 70
2019-10-13 02:00:00 19.3 9 Sudeste 31 Sudeste 0 962.3 -0.5 67
2019-10-13 01:00:00 19.6 6 Sudeste 33 Sudeste 0 962.3 -0.8 67
2019-10-13 00:00:00 20.2 11 Sudeste 45 Este 0 962.7 0.3 67
2019-10-12 23:00:00 20 11 Sudeste 32 Este 0 962.8 0.5 70
2019-10-12 22:00:00 18.8 7 Sudeste 36 Este 2.5 963.1 1.1 83
2019-10-12 21:00:00 21 8 Sudeste 33 Sudeste 0 962.4 0.2 61
2019-10-12 20:00:00 21.3 13 Sudeste 38 Este 0 962.3 -0.1 58
2019-10-12 19:00:00 23.2 11 Sudeste 45 Sudeste 0 962 -1 51
2019-10-12 18:00:00 23.8 10 Sudeste 31 Sudeste 0 962.2 -1.8 51
2019-10-12 17:00:00 24.3 11 Sudeste 33 Este 0 962.4 -2.2 53
2019-10-12 16:00:00 23.2 6 Sudeste 21 Este 0 963 -2.1 60
2019-10-12 15:00:00 22.5 6 Sudeste 21 Sudeste 0 964 -1.2 60
2019-10-12 14:00:00 21.5 6 Este 31 Este 0 964.6 -0.2 64
2019-10-12 13:00:00 20.4 6 Sudeste 30 Sudeste 0 965.1 0 67
2019-10-12 12:00:00 20 12 Sudeste 35 Sudeste 0 965.2 0.7 67
2019-10-12 11:00:00 19.5 8 Sudeste 39 Este 0 964.8 0.5 71
2019-10-12 10:00:00 18.9 6 Sudeste 24 Sudeste 0 965.1 0.7 74
2019-10-12 09:00:00 18.5 3 Sudeste 31 Este 0 964.5 0.2 75
2019-10-12 08:00:00 18.5 9 Sudeste 30 Este 0 964.3 0.3 75
2019-10-12 07:00:00 18.8 7 Sudeste 31 Sudeste 0 964.4 0.2 75
2019-10-12 06:00:00 19.1 7 Sudeste 27 Sudeste 0 964.3 -0.4 74
2019-10-12 05:00:00 19.4 10 Sudeste 26 Sudeste 0 964 -1.1 73
2019-10-12 04:00:00 19.7 8 Sudeste 35 Sudeste 0 964.2 -1.4 71
2019-10-12 03:00:00 19.6 5 Este 17 Sudeste 0 964.7 -1.1 72
2019-10-12 02:00:00 19.7 2 Sudeste 22 Este 0 965.1 -0.5 70
2019-10-12 01:00:00 18.9 0 Calma 5 Sudeste 0 965.6 0.2 71
2019-10-12 00:00:00 19.4 0 Calma 9 Noroeste 0 965.8 0.3 67
2019-10-11 23:00:00 19.1 0 Calma 6 Sudeste 0 965.6 0.2 68
2019-10-11 22:00:00 18.6 0 Calma 2 Sudeste 0 965.4 0.3 69
2019-10-11 21:00:00 19 0 Calma 12 Sudeste 0 965.5 0.1 66
2019-10-11 20:00:00 20.1 0 Calma 12 Este 0 965.4 -0.4 61
2019-10-11 19:00:00 22.1 2 Sudeste 10 Sur 0 965.1 -1.2 51
2019-10-11 18:00:00 23.1 3 Sudeste 15 Este 0 965.4 -1.5 47
2019-10-11 17:00:00 23.9 4 Sudeste 16 Nordeste 0 965.8 -2.3 44
2019-10-11 16:00:00 24.5 5 Este 17 Este 0 966.3 -2.5 43
2019-10-11 15:00:00 23 8 Este 19 Sudeste 0 966.9 -2.2 46
2019-10-11 14:00:00 22 7 Sudeste 25 Este 0 968.1 -1.1 51
2019-10-11 13:00:00 20.9 6 Sudeste 24 Sudeste 0 968.8 0 55
2019-10-11 12:00:00 19.4 12 Sudeste 32 Sudeste 0 969.1 0.9 58
2019-10-11 11:00:00 18.5 9 Sudeste 24 Este 0 969.2 1 61
2019-10-11 10:00:00 16.4 4 Este 16 Este 0 968.8 0.9 67
2019-10-11 09:00:00 13.1 0 Calma 11 Este 0 968.2 0.1 75
2019-10-11 08:00:00 12.2 0 Calma 8 Este 0 968.2 -0.1 73
2019-10-11 07:00:00 12.3 0 Calma 5 Este 0 967.9 -0.6 70
2019-10-11 06:00:00 12 0 Calma 7 Nordeste 0 968.1 -1 70
2019-10-11 05:00:00 12.4 0 Calma 12 Este 0 968.3 -1 70
2019-10-11 04:00:00 11.9 0 Calma 3 Sur 0 968.5 -1.3 76
2019-10-11 03:00:00 11.4 0 Calma 0 Calma 0 969.1 -1.4 84
2019-10-11 02:00:00 10.7 0 Calma 0 Calma 0 969.3 -1.5 99
2019-10-11 01:00:00 10.2 0 Calma 0 Calma 0 969.8 -1.1 99
2019-10-11 00:00:00 10.1 0 Calma 0 Calma 0 970.5 -0.4 99
2019-10-10 23:00:00 10.7 0 Calma 0 Calma 0 970.8 0.1 97
2019-10-10 22:00:00 11 0 Calma 0 Calma 0 970.9 0.1 94
2019-10-10 21:00:00 11.9 0 Calma 0 Calma 0 970.9 0.3 89
2019-10-10 20:00:00 13.4 0 Calma 10 Norte 0 970.7 -0.3 79
2019-10-10 19:00:00 15.4 0 Calma 14 Noroeste 0 970.8 -0.7 67
2019-10-10 18:00:00 17.1 4 Norte 14 Norte 0 970.6 -1.3 58
2019-10-10 17:00:00 18 6 Noroeste 17 Noroeste 0 971 -1.8 52
2019-10-10 16:00:00 18.9 3 Noroeste 10 Norte 0 971.5 -1.9 48
2019-10-10 15:00:00 18.3 0 Calma 13 Sudeste 0 971.9 -1.8 50
2019-10-10 14:00:00 17.2 0 Calma 14 Este 0 972.8 -1.1 52
2019-10-10 13:00:00 16.4 0 Calma 9 Este 0 973.4 -0.5 53
2019-10-10 12:00:00 14.9 3 Este 8 Este 0 973.7 0.4 67
2019-10-10 11:00:00 13.3 0 Calma 4 Este 0 973.9 1.1 77
2019-10-10 10:00:00 9.3 0 Calma 0 Calma 0 973.9 1 99
2019-10-10 09:00:00 6.8 0 Calma 3 Sudoeste 0 973.3 0.6 99
2019-10-10 08:00:00 7 0 Calma 6 Sudoeste 0 972.8 -0.1 99
2019-10-10 07:00:00 7 0 Calma 7 Sudoeste 0 972.9 0 99
2019-10-10 06:00:00 7.3 0 Calma 6 Sudoeste 0 972.7 -0.2 99
2019-10-10 05:00:00 8 0 Calma 0 Calma 0 972.9 0.1 99
2019-10-10 04:00:00 8.7 0 Calma 2 Sudoeste 0 972.9 -0.2 98
2019-10-10 03:00:00 8.4 0 Calma 4 Sudoeste 0 972.9 -0.3 98
2019-10-10 02:00:00 8.8 0 Calma 6 Sudoeste 0 972.8 -0.3 97
2019-10-10 01:00:00 10 0 Calma 8 Sudoeste 0 973.1 0 95
2019-10-10 00:00:00 9.6 0 Calma 5 Sudoeste 0 973.2 0.1 94
2019-10-09 23:00:00 10.2 0 Calma 0 Calma 0 973.1 0.4 93
2019-10-09 22:00:00 10.5 0 Calma 6 Sudoeste 0 973.1 1 89
2019-10-09 21:00:00 11.1 0 Calma 6 Sudoeste 0 973.1 1.4 81
2019-10-09 20:00:00 11.9 0 Calma 23 Oeste 0 972.7 1 71
2019-10-09 19:00:00 13.7 12 Oeste 24 Oeste 0 972.1 0.5 59
2019-10-09 18:00:00 15 13 Noroeste 27 Oeste 0 971.7 0.1 57
2019-10-09 17:00:00 15.6 14 Oeste 34 Oeste 0 971.7 -0.3 57
2019-10-09 16:00:00 15.5 10 Noroeste 30 Oeste 0 971.6 -0.7 61
2019-10-09 15:00:00 15.7 8 Noroeste 20 Oeste 0.1 971.6 -0.6 62
2019-10-09 14:00:00 13.5 9 Noroeste 20 Oeste 0 972 -0.1 82
2019-10-09 13:00:00 13.4 9 Oeste 21 Oeste 0 972.3 0.7 82
2019-10-09 12:00:00 13.3 9 Oeste 24 Oeste 0 972.2 1.2 83
2019-10-09 11:00:00 12.4 5 Noroeste 10 Noroeste 0 972.1 1.5 97
2019-10-09 10:00:00 11.7 2 Oeste 14 Oeste 0 971.6 1.5 99
2019-10-09 09:00:00 11.3 9 Oeste 15 Oeste 0.1 971 1.1 99
2019-10-09 08:00:00 11.4 5 Oeste 15 Oeste 0 970.6 1.5 99
2019-10-09 07:00:00 11.5 6 Oeste 14 Oeste 0 970.1 1.1 99
2019-10-09 06:00:00 11.9 6 Oeste 15 Oeste 0.2 969.9 0.7 99
2019-10-09 05:00:00 12 5 Oeste 16 Oeste 0 969.1 -0.5 99
2019-10-09 04:00:00 12.3 0 Calma 9 Oeste 0 969 -0.7 99
2019-10-09 03:00:00 12.4 0 Calma 11 Noroeste 0 969.2 -0.9 99
2019-10-09 02:00:00 12.8 4 Noroeste 18 Norte 0.2 969.6 -0.5 99
2019-10-09 01:00:00 13.5 0 Calma 6 Noroeste 0.1 969.7 -0.3 99
2019-10-09 00:00:00 13.7 0 Calma 7 Noroeste 0.1 970.1 0.7 99
2019-10-08 23:00:00 14.2 0 Calma 21 Norte 0.2 970.1 1.1 98
2019-10-08 22:00:00 14.8 9 Noroeste 22 Noroeste 0.7 970 1.6 97
2019-10-08 21:00:00 16.1 10 Oeste 20 Oeste 0 969.4 1.4 97
2019-10-08 20:00:00 17.5 11 Oeste 27 Oeste 0 969 1.3 88
2019-10-08 19:00:00 19.4 8 Noroeste 18 Noroeste 0 968.4 1.2 69
2019-10-08 18:00:00 21.3 8 Noroeste 18 Noroeste 0 968 0.9 46
2019-10-08 17:00:00 21.7 7 Noroeste 25 Noroeste 0 967.7 0.2 41
2019-10-08 16:00:00 23.6 7 Noroeste 15 Oeste 0 967.2 -0.4 34
2019-10-08 15:00:00 23.1 8 Noroeste 20 Oeste 0 967.1 -1 34
2019-10-08 14:00:00 22.3 9 Oeste 20 Oeste 0 967.5 -0.9 35
2019-10-08 13:00:00 21.9 0 Calma 4 Nordeste 0 967.6 -0.9 34
2019-10-08 12:00:00 18.2 0 Calma 7 Este 0.1 968.1 -0.3 46
2019-10-08 11:00:00 15.6 0 Calma 3 Este 0 968.4 -0.1 58
2019-10-08 10:00:00 12 0 Calma 0 Calma 0 968.5 0.1 70
2019-10-08 09:00:00 8.4 0 Calma 0 Calma 0 968.4 -0.5 77
2019-10-08 08:00:00 7.9 0 Calma 0 Calma 0 968.5 -0.7 80
2019-10-08 07:00:00 7.8 0 Calma 0 Calma 0 968.4 -1.7 82
2019-10-08 06:00:00 8.2 0 Calma 4 Sudoeste 0 968.9 -1.9 86
2019-10-08 05:00:00 8.1 0 Calma 0 Calma 0 969.2 -1 83
2019-10-08 04:00:00 8.7 0 Calma 2 Sudoeste 0 970.1 -0.6 85
2019-10-08 03:00:00 9.5 0 Calma 6 Sudeste 0 970.8 -0.1 83
2019-10-08 02:00:00 9.6 0 Calma 11 Sudoeste 0 970.2 -0.7 82
2019-10-08 01:00:00 9.3 0 Calma 3 Sudoeste 0 970.7 -0.2 86
2019-10-08 00:00:00 10.3 0 Calma 10 Sudoeste 0 970.9 0.2 84
2019-10-07 23:00:00 10.1 0 Calma 8 Sudoeste 0 970.9 0.3 83
2019-10-07 22:00:00 10.9 0 Calma 6 Sudoeste 0 970.9 0.6 84
2019-10-07 21:00:00 12.8 0 Calma 6 Sur 0 970.7 0.3 81
2019-10-07 20:00:00 15.2 0 Calma 0 Calma 0 970.6 0.2 69
2019-10-07 19:00:00 17.6 0 Calma 15 Noroeste 0 970.3 -0.3 45
2019-10-07 18:00:00 19.3 8 Noroeste 17 Norte 0 970.4 -0.4 38
2019-10-07 17:00:00 19.8 7 Noroeste 14 Norte 0 970.4 -1.1 40
2019-10-07 16:00:00 20.6 0 Calma 15 Oeste 0 970.6 -1.5 37
2019-10-07 15:00:00 19.8 0 Calma 11 Noroeste 0 970.8 -1.4 43
2019-10-07 14:00:00 18 2 Sudeste 10 Este 0 971.5 -0.3 59
2019-10-07 13:00:00 16.9 3 Sudeste 14 Sudeste 0 972.1 0.7 68
2019-10-07 12:00:00 15 3 Este 10 Este 0 972.2 0.6 79
2019-10-07 11:00:00 12.6 0 Calma 4 Sudeste 0 971.8 0.3 94
2019-10-07 10:00:00 10.3 0 Calma 0 Calma 0 971.4 0.4 99
2019-10-07 09:00:00 8.7 0 Calma 5 Sudoeste 0 971.6 0.6 99
2019-10-07 08:00:00 7.9 0 Calma 8 Sudoeste 0.1 971.5 0.3 99
2019-10-07 07:00:00 7.9 0 Calma 8 Oeste 0 971 -0.8 99
2019-10-07 06:00:00 8.1 0 Calma 8 Oeste 0 971 -1.2 99
2019-10-07 05:00:00 8.5 0 Calma 7 Sudoeste 0 971.2 -1.2 99
2019-10-07 04:00:00 9.3 0 Calma 6 Oeste 0 971.8 -0.9 99
2019-10-07 03:00:00 9.4 0 Calma 6 Sudoeste 0 972.2 -1.1 99
2019-10-07 02:00:00 10 0 Calma 4 Oeste 0 972.4 -0.7 99
2019-10-07 01:00:00 10.7 0 Calma 4 Oeste 0 972.7 -0.2 99
2019-10-07 00:00:00 11.2 0 Calma 11 Oeste 0 973.3 0.5 99
2019-10-06 23:00:00 11.6 0 Calma 16 Oeste 0 973.1 0.5 99
2019-10-06 22:00:00 12.4 7 Oeste 17 Oeste 0 972.9 0.5 99
2019-10-06 21:00:00 12.6 9 Oeste 22 Oeste 0 972.8 0.8 99
2019-10-06 20:00:00 13 12 Oeste 29 Oeste 0.1 972.6 1 98
2019-10-06 19:00:00 13.1 3 Noroeste 16 Noroeste 0.9 972.4 0.7 99
2019-10-06 18:00:00 13.4 4 Noroeste 19 Oeste 2.4 972 0.1 99
2019-10-06 17:00:00 13.6 8 Oeste 20 Oeste 0.3 971.6 -0.3 99
2019-10-06 16:00:00 14.1 12 Oeste 20 Oeste 0 971.7 -0.2 96
2019-10-06 15:00:00 13.9 14 Oeste 25 Noroeste 0.5 971.9 0.2 98
2019-10-06 14:00:00 14.2 8 Oeste 15 Oeste 0.2 971.9 0.4 97
2019-10-06 13:00:00 14.4 3 Oeste 12 Noroeste 0 971.9 0.7 91
2019-10-06 12:00:00 14.1 7 Oeste 13 Oeste 0 971.7 0.9 88
2019-10-06 11:00:00 14 6 Oeste 16 Oeste 0 971.5 1.1 91
2019-10-06 10:00:00 12.7 4 Oeste 13 Oeste 0 971.2 0.8 98
2019-10-06 09:00:00 11.7 0 Calma 3 Sudoeste 0 970.8 1 98
2019-10-06 08:00:00 11.5 0 Calma 2 Sudeste 0 970.4 0.3 98
2019-10-06 07:00:00 11.6 0 Calma 0 Calma 0 970.4 0.4 98
2019-10-06 06:00:00 11.4 0 Calma 2 Oeste 0 969.8 -0.9 98
2019-10-06 05:00:00 11.1 0 Calma 4 Sudoeste 0 970.1 0.2 98
2019-10-06 04:00:00 11.1 0 Calma 3 Oeste 0 970 -0.4 97
2019-10-06 03:00:00 12.1 0 Calma 4 Oeste 0 970.7 1.1 96
2019-10-06 02:00:00 12.8 0 Calma 8 Sudoeste 0 969.9 -0.1 96
2019-10-06 01:00:00 12.7 6 Oeste 16 Oeste 0 970.4 0.4 93
2019-10-06 00:00:00 13.3 0 Calma 4 Oeste 0 969.6 -0.1 92
2019-10-05 23:00:00 13.6 0 Calma 13 Oeste 0 970 0.9 91
2019-10-05 22:00:00 14 3 Noroeste 12 Oeste 0 970 1.6 87
2019-10-05 21:00:00 14.2 2 Noroeste 13 Norte 0 969.7 2 85
2019-10-05 20:00:00 14.7 5 Oeste 15 Noroeste 0 969.1 1.3 81
2019-10-05 19:00:00 15.8 3 Norte 13 Norte 0 968.4 0.4 76
2019-10-05 18:00:00 16.5 0 Calma 9 Noroeste 0 967.7 -0.6 71
2019-10-05 17:00:00 17.1 4 Noroeste 13 Noroeste 0 967.8 -0.9 67
2019-10-05 16:00:00 17.1 4 Norte 10 Noroeste 0 968 -0.4 68
2019-10-05 15:00:00 16.8 3 Norte 13 Norte 0 968.3 -0.2 70
2019-10-05 14:00:00 16.8 0 Calma 11 Noroeste 0 968.7 -0.2 70
2019-10-05 13:00:00 16.8 4 Sudeste 14 Nordeste 0 968.4 -0.2 73
2019-10-05 12:00:00 15.8 7 Este 16 Este 0 968.5 0.2 78
2019-10-05 11:00:00 14.2 0 Calma 0 Calma 0 968.9 1.1 99
2019-10-05 10:00:00 12.4 0 Calma 4 Oeste 0 968.6 0.5 99
2019-10-05 09:00:00 11.7 0 Calma 0 Calma 0 968.3 0.2 99
2019-10-05 08:00:00 12.1 0 Calma 0 Calma 0 967.8 -0.4 99
2019-10-05 07:00:00 12.4 0 Calma 3 Oeste 0 968.1 -0.3 99
2019-10-05 06:00:00 12.6 2 Oeste 9 Oeste 0.1 968.1 -0.6 99
2019-10-05 05:00:00 12.7 0 Calma 2 Oeste 0.3 968.2 -0.8 99
2019-10-05 04:00:00 12.6 0 Calma 3 Oeste 0 968.4 -1 99
2019-10-05 03:00:00 12.7 0 Calma 0 Calma 0 968.7 -0.8 99
2019-10-05 02:00:00 12.8 0 Calma 3 Sudeste 0 969 -0.7 99
2019-10-05 01:00:00 12.8 0 Calma 3 Oeste 0.1 969.4 -0.1 99
2019-10-05 00:00:00 13 0 Calma 0 Calma 0 969.5 0.3 99
2019-10-04 23:00:00 12.9 0 Calma 3 Oeste 0.1 969.7 0.9 99
2019-10-04 22:00:00 13.2 0 Calma 6 Oeste 0 969.5 1.1 97
2019-10-04 21:00:00 13.4 4 Noroeste 14 Noroeste 0 969.2 1 94
2019-10-04 20:00:00 14.2 0 Calma 11 Norte 0 968.8 0.9 91
2019-10-04 19:00:00 14.3 0 Calma 12 Noroeste 0 968.4 0.2 96
2019-10-04 18:00:00 14.7 3 Norte 12 Noroeste 0 968.2 -0.2 95
2019-10-04 17:00:00 14.9 3 Norte 17 Noroeste 0 967.9 -1 94
2019-10-04 16:00:00 15.1 7 Noroeste 18 Noroeste 0 968.2 -1.3 91
2019-10-04 15:00:00 16.1 7 Oeste 17 Oeste 0 968.4 -1.1 92
2019-10-04 14:00:00 16 8 Oeste 17 Oeste 0 968.9 -0.5 93
2019-10-04 13:00:00 15.2 9 Oeste 21 Oeste 0 969.5 0.5 98
2019-10-04 12:00:00 14.6 9 Oeste 17 Oeste 0 969.5 1 99
2019-10-04 11:00:00 14.3 8 Oeste 17 Oeste 0.1 969.4 1.2 99
2019-10-04 10:00:00 14.6 0 Calma 6 Oeste 0 969 1 93
2019-10-04 09:00:00 13.7 2 Oeste 10 Sudoeste 0 968.5 0.6 94
2019-10-04 08:00:00 12.8 0 Calma 3 Sudeste 0 968.2 0.1 94
2019-10-04 07:00:00 12.8 0 Calma 2 Oeste 0 968 -0.3 94
2019-10-04 06:00:00 12.9 0 Calma 0 Calma 0 967.9 -0.7 92
2019-10-04 05:00:00 12.3 0 Calma 0 Calma 0 968.1 -0.9 92
2019-10-04 04:00:00 12.1 0 Calma 0 Calma 0 968.3 -1 92
2019-10-04 03:00:00 12.1 0 Calma 6 Sudoeste 0 968.6 -1.3 88
2019-10-04 02:00:00 11.8 0 Calma 3 Oeste 0 969 -1 90
2019-10-04 01:00:00 12 0 Calma 3 Sudoeste 0 969.3 -0.2 88
2019-10-04 00:00:00 11.8 0 Calma 3 Sudoeste 0 969.9 0.6 86
2019-10-03 23:00:00 11.4 0 Calma 3 Sudoeste 0 970 0.9 86
2019-10-03 22:00:00 12.3 0 Calma 9 Sudoeste 0 969.5 0.8 77
2019-10-03 21:00:00 13.4 4 Oeste 10 Oeste 0 969.3 0.7 70
2019-10-03 20:00:00 14.9 2 Oeste 19 Oeste 0 969.1 0.4 60
2019-10-03 19:00:00 17.2 11 Oeste 28 Oeste 0 968.7 -0.1 52
2019-10-03 18:00:00 18.1 10 Noroeste 23 Oeste 0 968.6 -0.2 52
2019-10-03 17:00:00 18.7 6 Noroeste 21 Noroeste 0 968.7 -0.4 52
2019-10-03 16:00:00 19.3 7 Noroeste 23 Oeste 0 968.8 -0.6 49
2019-10-03 15:00:00 18.3 11 Oeste 21 Noroeste 0 968.8 -0.7 52
2019-10-03 14:00:00 17.7 9 Oeste 18 Noroeste 0 969.1 -0.7 60
2019-10-03 13:00:00 16.1 0 Calma 12 Sudeste 0 969.4 -0.3 64
2019-10-03 12:00:00 15.1 4 Este 9 Este 0 969.5 -0.1 80
2019-10-03 11:00:00 12.3 0 Calma 4 Sudoeste 0 969.8 0.4 99
2019-10-03 10:00:00 10 0 Calma 6 Sudoeste 0 969.7 0.5 99
2019-10-03 09:00:00 8.1 0 Calma 7 Sudoeste 0 969.6 -0.1 99
2019-10-03 08:00:00 7.6 0 Calma 5 Oeste 0 969.4 -0.4 99
2019-10-03 07:00:00 8.1 0 Calma 10 Oeste 0.1 969.2 -0.7 99
2019-10-03 06:00:00 8 0 Calma 9 Oeste 0 969.7 -1.2 99
2019-10-03 05:00:00 8.7 0 Calma 9 Sudoeste 0 969.8 -1.3 99
2019-10-03 04:00:00 8.9 0 Calma 11 Sudoeste 0.1 969.9 -1.8 99
2019-10-03 03:00:00 9.6 0 Calma 10 Oeste 0 970.9 -1.2 99
2019-10-03 02:00:00 10 0 Calma 4 Oeste 0 971.1 -1.3 99
2019-10-03 01:00:00 10.7 0 Calma 10 Oeste 0 971.7 -0.7 99
2019-10-03 00:00:00 11.3 3 Oeste 12 Sudoeste 0 972.1 0.3 99
2019-10-02 23:00:00 11.8 3 Oeste 12 Oeste 0 972.4 0.9 99
2019-10-02 22:00:00 12.1 3 Oeste 13 Oeste 0 972.4 1.5 99
2019-10-02 21:00:00 12.2 3 Oeste 14 Oeste 0.1 971.8 1.3 99
2019-10-02 20:00:00 12.4 2 Oeste 18 Oeste 0 971.5 1.2 99
2019-10-02 19:00:00 12.7 9 Noroeste 22 Noroeste 0.3 970.9 0.6 99
2019-10-02 18:00:00 12.7 6 Oeste 26 Oeste 1.4 970.5 0.3 99
2019-10-02 17:00:00 12.9 15 Oeste 33 Oeste 0.2 970.3 0.2 99
2019-10-02 16:00:00 12.7 10 Oeste 36 Oeste 0.8 970.3 0.3 99
2019-10-02 15:00:00 12.8 14 Oeste 28 Oeste 1.1 970.2 0.6 99
2019-10-02 14:00:00 13.1 12 Oeste 31 Oeste 0.6 970.1 1.1 99
2019-10-02 13:00:00 12.7 14 Oeste 36 Oeste 2.4 970 1.8 99
2019-10-02 12:00:00 12.4 13 Oeste 28 Oeste 0 969.6 2.3 99
2019-10-02 11:00:00 12 13 Oeste 26 Oeste 0.2 969 2.2 99
2019-10-02 10:00:00 11.6 13 Oeste 24 Noroeste 1.9 968.2 1.7 99
2019-10-02 09:00:00 11.4 14 Oeste 29 Noroeste 2.6 967.3 0.8 99
2019-10-02 08:00:00 11.3 11 Oeste 21 Oeste 1.3 966.8 0.6 99
2019-10-02 07:00:00 11.4 12 Oeste 21 Oeste 0.8 966.5 -0.1 99
2019-10-02 06:00:00 11.5 8 Oeste 17 Oeste 0.3 966.5 -0.1 99
2019-10-02 05:00:00 11.8 4 Oeste 37 Oeste 0.9 966.2 -0.3 98
2019-10-02 04:00:00 13.3 12 Oeste 33 Oeste 0 966.6 0 82
2019-10-02 03:00:00 13.7 17 Oeste 30 Oeste 0 966.6 0.1 80
2019-10-02 02:00:00 13.8 15 Oeste 44 Oeste 0 966.5 0.4 83
2019-10-02 01:00:00 14 20 Oeste 34 Oeste 0 966.6 0.5 86
2019-10-02 00:00:00 14.2 17 Noroeste 31 Noroeste 0 966.5 0.8 88
2019-10-01 23:00:00 14.4 6 Oeste 17 Noroeste 0.1 966.1 0.9 93
2019-10-01 22:00:00 14.2 6 Oeste 22 Oeste 0.1 966.1 1.2 96
2019-10-01 21:00:00 14.6 5 Oeste 25 Oeste 0 965.7 1 91
2019-10-01 20:00:00 16 8 Noroeste 27 Noroeste 0 965.2 0.9 75
2019-10-01 19:00:00 16.3 17 Oeste 33 Oeste 0 964.9 0.8 74
2019-10-01 18:00:00 17.1 12 Oeste 21 Noroeste 0 964.7 0.7 77
2019-10-01 17:00:00 18.1 5 Norte 18 Noroeste 0 964.3 -0.3 76
2019-10-01 16:00:00 18.9 2 Norte 24 Norte 0 964.1 -0.4 69
2019-10-01 15:00:00 19.9 11 Noroeste 21 Noroeste 0 964 -0.9 61
2019-10-01 14:00:00 19 15 Noroeste 31 Noroeste 0 964.6 0 64
2019-10-01 13:00:00 20.3 6 Noroeste 21 Noroeste 0 964.5 0.8 64
2019-10-01 12:00:00 19 6 Oeste 23 Oeste 0 964.9 1.7 78
2019-10-01 11:00:00 17.2 15 Oeste 27 Oeste 0 964.6 2.4 88
2019-10-01 10:00:00 15.9 11 Oeste 22 Oeste 0 963.7 2 97
2019-10-01 09:00:00 14.9 8 Oeste 29 Oeste 0 963.2 1.5 99
2019-10-01 08:00:00 14.1 13 Oeste 32 Oeste 0 962.2 0 99
2019-10-01 07:00:00 13.8 0 Calma 3 Sudoeste 0 961.7 -1.4 99
2019-10-01 06:00:00 13.6 0 Calma 2 Sudoeste 0 961.7 -2.3 99
2019-10-01 05:00:00 13.8 0 Calma 3 Sur 0 962.2 -1.9 99
2019-10-01 04:00:00 14.4 0 Calma 13 Oeste 0 963.1 -1.3 98
2019-10-01 03:00:00 14.5 3 Oeste 12 Sudoeste 0 964 -0.6 97
2019-10-01 02:00:00 14.9 2 Sudoeste 9 Sudoeste 0 964.1 -0.5 97
2019-10-01 01:00:00 15.5 0 Calma 13 Oeste 0 964.4 -0.4 96
2019-10-01 00:00:00 16.1 0 Calma 0 Calma 0 964.6 0 94
2019-09-30 23:00:00 16.5 0 Calma 0 Calma 0 964.6 0.1 92
2019-09-30 22:00:00 17.1 0 Calma 0 Calma 0 964.8 0.4 88
2019-09-30 21:00:00 18.2 0 Calma 0 Calma 0 964.6 0 82
2019-09-30 20:00:00 20.4 0 Calma 10 Norte 0 964.5 -0.6 73
2019-09-30 19:00:00 22.6 4 Norte 13 Noroeste 0 964.4 -1.4 58
2019-09-30 18:00:00 23.8 4 Noroeste 13 Oeste 0 964.6 -1.7 47
2019-09-30 17:00:00 24.6 7 Noroeste 15 Oeste 0 965.1 -2 44
2019-09-30 16:00:00 25.3 8 Noroeste 15 Oeste 0 965.8 -2.2 44
2019-09-30 15:00:00 24.7 2 Oeste 9 Noroeste 0 966.3 -2.3 46
2019-09-30 14:00:00 24.3 2 Noroeste 12 Noroeste 0 967.1 -1.6 49
2019-09-30 13:00:00 22.4 0 Calma 10 Este 0 968 -0.8 54
2019-09-30 12:00:00 20 5 Nordeste 12 Nordeste 0 968.6 0.1 67
2019-09-30 11:00:00 18.1 3 Este 8 Este 0 968.7 0.4 75
2019-09-30 10:00:00 16 0 Calma 4 Este 0 968.8 0.7 80
2019-09-30 09:00:00 13.9 0 Calma 0 Calma 0 968.5 0.2 94
2019-09-30 08:00:00 12.5 0 Calma 5 Sudeste 0 968.3 -0.1 91
2019-09-30 07:00:00 13.7 0 Calma 2 Sudeste 0 968.1 -0.7 90
2019-09-30 06:00:00 13.7 0 Calma 0 Calma 0 968.3 -0.9 88
2019-09-30 05:00:00 13.7 0 Calma 0 Calma 0 968.4 -1.1 88
2019-09-30 04:00:00 13.5 0 Calma 3 Sudeste 0 968.8 -0.7 84
2019-09-30 03:00:00 14.6 0 Calma 3 Sudeste 0 969.2 -0.5 80
2019-09-30 02:00:00 15.2 0 Calma 0 Calma 0 969.5 -0.1 76
2019-09-30 01:00:00 15.6 0 Calma 0 Calma 0 969.5 0.2 72
2019-09-30 00:00:00 15.3 0 Calma 2 Sudeste 0 969.7 1.2 73
2019-09-29 23:00:00 15 0 Calma 5 Sudoeste 0 969.6 1.8 71
2019-09-29 22:00:00 15 0 Calma 6 Oeste 0 969.3 2 63
2019-09-29 21:00:00 16.2 0 Calma 5 Sudoeste 0 968.5 1.9 52
2019-09-29 20:00:00 18.1 0 Calma 12 Norte 0 967.8 2 40
2019-09-29 19:00:00 20.6 6 Norte 32 Norte 0 967.3 1.5 33
2019-09-29 18:00:00 22.3 11 Norte 30 Noroeste 0 966.6 0.2 33
2019-09-29 17:00:00 25.4 10 Noroeste 21 Noroeste 0 965.8 -1.2 33
2019-09-29 16:00:00 27.4 0 Calma 14 Noroeste 0 965.8 -1 28
2019-09-29 15:00:00 26.9 8 Noroeste 27 Oeste 0 966.4 -0.4 29
2019-09-29 14:00:00 25.5 16 Oeste 31 Oeste 0 967 0.5 29
2019-09-29 13:00:00 25.1 5 Noroeste 25 Oeste 0 966.8 0.8 33
2019-09-29 12:00:00 23.8 3 Sudoeste 30 Sudoeste 0 966.8 0.8 34
2019-09-29 11:00:00 22.7 3 Oeste 29 Sudoeste 0 966.5 0.6 36
2019-09-29 10:00:00 20.3 5 Sudeste 15 Este 0 966 0.3 51
2019-09-29 09:00:00 15.8 0 Calma 4 Oeste 0 966 0.1 71
2019-09-29 08:00:00 13.7 0 Calma 10 Oeste 0 965.9 -0.1 77
2019-09-29 07:00:00 14.1 0 Calma 6 Noroeste 0 965.7 -0.8 76
2019-09-29 06:00:00 13.9 0 Calma 4 Oeste 0 965.9 -1 77
2019-09-29 05:00:00 14.5 0 Calma 6 Sudoeste 0 966 -1 73
2019-09-29 04:00:00 14.2 0 Calma 4 Sudeste 0 966.5 -0.6 79
2019-09-29 03:00:00 15.2 0 Calma 5 Sudeste 0 966.9 -0.6 76
2019-09-29 02:00:00 13.5 0 Calma 5 Sudoeste 0 967 -1 96
2019-09-29 01:00:00 13.5 0 Calma 5 Sudoeste 0 967.1 -0.8 99
2019-09-29 00:00:00 13.9 0 Calma 6 Oeste 0 967.5 -0.4 99
2019-09-28 23:00:00 14.5 0 Calma 3 Sudoeste 0 968 0.4 98
2019-09-28 22:00:00 15.3 0 Calma 2 Oeste 0 967.9 0.4 97
2019-09-28 21:00:00 16.1 0 Calma 6 Norte 0 967.9 0.1 92
2019-09-28 20:00:00 18 0 Calma 9 Noroeste 0 967.6 -0.4 82
2019-09-28 19:00:00 20.4 3 Sudeste 9 Este 0 967.5 -1.4 67
2019-09-28 18:00:00 21.9 2 Sudeste 13 Sudeste 0 967.8 -2 58
2019-09-28 17:00:00 22.6 2 Sudeste 13 Sudeste 0 968 -2.6 54
2019-09-28 16:00:00 22.8 0 Calma 14 Noroeste 0 968.9 -2.4 53
2019-09-28 15:00:00 22.2 3 Norte 13 Noroeste 0 969.8 -2.2 54
2019-09-28 14:00:00 20.8 2 Este 10 Noroeste 0 970.6 -1.7 55
2019-09-28 13:00:00 19.4 0 Calma 12 Este 0 971.3 -0.7 66
2019-09-28 12:00:00 17.1 4 Este 11 Este 0 972 0.3 76
2019-09-28 11:00:00 14.9 0 Calma 5 Nordeste 0 972.3 0.9 89
2019-09-28 10:00:00 13.7 0 Calma 3 Este 0 972 0.3 99
2019-09-28 09:00:00 13.3 0 Calma 0 Calma 0 971.7 -0.2 99
2019-09-28 08:00:00 12.9 0 Calma 0 Calma 0 971.4 -0.4 99
2019-09-28 07:00:00 12.7 0 Calma 0 Calma 0 971.7 -0.4 99
2019-09-28 06:00:00 13.1 0 Calma 0 Calma 0 971.9 -0.2 99
2019-09-28 05:00:00 13.1 0 Calma 0 Calma 0 971.8 -0.2 99
2019-09-28 04:00:00 13.3 0 Calma 3 Oeste 0.1 972.1 -0.1 98
2019-09-28 03:00:00 13.3 0 Calma 3 Oeste 0 972.1 -0.3 97
2019-09-28 02:00:00 13.6 0 Calma 5 Oeste 0 972 0.1 95
2019-09-28 01:00:00 13.7 0 Calma 12 Oeste 0 972.2 0.5 94
2019-09-28 00:00:00 13.4 4 Oeste 17 Oeste 0 972.4 1.5 99
2019-09-27 23:00:00 14 7 Oeste 20 Noroeste 0 971.9 1.6 97
2019-09-27 22:00:00 15.6 5 Noroeste 17 Noroeste 0 971.7 2.1 88
2019-09-27 21:00:00 16 8 Noroeste 18 Nordeste 0 970.9 1.8 86
2019-09-27 20:00:00 16.5 6 Norte 22 Nordeste 0 970.3 1.5 81
2019-09-27 19:00:00 18.3 5 Norte 19 Noroeste 0 969.6 0.7 68
2019-09-27 18:00:00 19.2 8 Noroeste 19 Norte 0 969.1 0 68
2019-09-27 17:00:00 20.5 6 Norte 20 Noroeste 0 968.8 -0.8 61
2019-09-27 16:00:00 20.3 6 Norte 17 Oeste 0 968.9 -0.7 65
2019-09-27 15:00:00 21.1 8 Noroeste 17 Noroeste 0 969.1 -0.8 58
2019-09-27 14:00:00 20.6 6 Noroeste 18 Noroeste 0 969.6 -0.6 56
2019-09-27 13:00:00 21.1 10 Noroeste 27 Noroeste 0 969.6 -0.2 53
2019-09-27 12:00:00 19.6 2 Este 9 Este 0 969.9 0.3 61
2019-09-27 11:00:00 16.9 3 Este 8 Este 0 970.2 0.9 79
2019-09-27 10:00:00 14.2 0 Calma 0 Calma 0 969.8 0.7 94
2019-09-27 09:00:00 11.6 0 Calma 0 Calma 0 969.6 0.1 99
2019-09-27 08:00:00 10.8 0 Calma 0 Calma 0 969.3 -0.2 99
2019-09-27 07:00:00 11.2 0 Calma 3 Sudoeste 0 969.1 -0.2 99
2019-09-27 06:00:00 11.6 0 Calma 7 Sudoeste 0 969.5 -0.2 99
2019-09-27 05:00:00 12.3 0 Calma 2 Sudoeste 0 969.5 -0.2 97
2019-09-27 04:00:00 14.1 0 Calma 2 Noroeste 0 969.3 0.1 95
2019-09-27 03:00:00 14.8 0 Calma 10 Noroeste 0 969.7 0.1 96
2019-09-27 02:00:00 15 2 Oeste 6 Oeste 0 969.7 0.1 97
2019-09-27 01:00:00 15.1 0 Calma 2 Sudeste 0 969.2 -0.3 97
2019-09-27 00:00:00 15.2 0 Calma 3 Sudeste 0 969.6 0.5 97
2019-09-26 23:00:00 15.4 0 Calma 5 Sudeste 0 969.6 0.9 95
2019-09-26 22:00:00 15.7 0 Calma 8 Norte 0 969.5 1.2 91
2019-09-26 21:00:00 15.9 3 Norte 12 Norte 0 969.1 1.4 89
2019-09-26 20:00:00 16.2 2 Norte 21 Noroeste 0 968.7 0.9 88
2019-09-26 19:00:00 18 7 Norte 22 Noroeste 0 968.3 0.3 77
2019-09-26 18:00:00 19.9 9 Noroeste 19 Noroeste 0 967.7 -0.4 66
2019-09-26 17:00:00 21.5 6 Norte 15 Norte 0 967.8 -1 58
2019-09-26 16:00:00 23 4 Norte 14 Norte 0 968 -0.9 51
2019-09-26 15:00:00 21.9 3 Norte 12 Norte 0 968.1 -1.4 52
2019-09-26 14:00:00 21.1 3 Norte 12 Noroeste 0 968.8 -0.8 52
2019-09-26 13:00:00 19.9 2 Este 13 Este 0 968.9 -0.6 55
2019-09-26 12:00:00 18.3 2 Sudeste 9 Este 0 969.5 0.3 64
2019-09-26 11:00:00 15.9 0 Calma 5 Este 0 969.6 0.5 79
2019-09-26 10:00:00 12.8 0 Calma 0 Calma 0 969.5 0.8 99
2019-09-26 09:00:00 11.3 0 Calma 0 Calma 0 969.2 0.7 99
2019-09-26 08:00:00 10.8 0 Calma 6 Sudoeste 0 969.1 0.3 99
2019-09-26 07:00:00 10.4 0 Calma 8 Oeste 0 968.7 -0.1 99
2019-09-26 06:00:00 10.7 0 Calma 2 Oeste 0 968.5 -0.9 99
2019-09-26 05:00:00 11 0 Calma 0 Calma 0 968.8 -0.6 99
2019-09-26 04:00:00 11.3 0 Calma 6 Sudoeste 0 968.8 -0.6 98
2019-09-26 03:00:00 11.6 0 Calma 8 Sudoeste 0 969.4 0 97
2019-09-26 02:00:00 12.3 0 Calma 3 Sudoeste 0 969.4 0.3 96
2019-09-26 01:00:00 13.1 0 Calma 0 Calma 0 969.4 0.3 93
2019-09-26 00:00:00 13.6 0 Calma 0 Calma 0 969.4 0.6 91
2019-09-25 23:00:00 14.3 0 Calma 7 Este 0 969.1 0.5 85
2019-09-25 22:00:00 15.1 0 Calma 3 Este 0 969.1 1.1 80
2019-09-25 21:00:00 15.8 0 Calma 12 Nordeste 0 968.8 0.8 73
2019-09-25 20:00:00 16 7 Norte 14 Noroeste 0 968.6 0.5 72
2019-09-25 19:00:00 17.1 0 Calma 11 Noroeste 0 968 -0.2 67
2019-09-25 18:00:00 17.6 3 Norte 13 Noroeste 0 968 -0.2 61
2019-09-25 17:00:00 17.9 3 Norte 14 Oeste 0 968.1 -0.6 59
2019-09-25 16:00:00 18.4 7 Oeste 15 Oeste 0 968.2 -0.9 51
2019-09-25 15:00:00 19 7 Noroeste 21 Noroeste 0 968.2 -1.1 50
2019-09-25 14:00:00 18.6 12 Oeste 24 Oeste 0 968.7 -0.3 50
2019-09-25 13:00:00 17.2 10 Oeste 29 Noroeste 0 969.1 0.4 55
2019-09-25 12:00:00 15.6 12 Oeste 27 Oeste 0 969.3 0.8 63
2019-09-25 11:00:00 15 11 Oeste 21 Oeste 0 969 0.9 70
2019-09-25 10:00:00 13.2 0 Calma 5 Oeste 0 968.7 0.8 99
2019-09-25 09:00:00 11.4 0 Calma 6 Sudeste 0 968.5 0.8 99
2019-09-25 08:00:00 11.2 0 Calma 6 Oeste 0 968.1 0.5 99
2019-09-25 07:00:00 12 0 Calma 6 Oeste 0 967.9 0.1 99
2019-09-25 06:00:00 12.5 0 Calma 0 Calma 0 967.7 -0.4 99
2019-09-25 05:00:00 12.5 0 Calma 0 Calma 0 967.6 -0.4 99
2019-09-25 04:00:00 12.7 0 Calma 2 Sudeste 0 967.8 -0.4 99
2019-09-25 03:00:00 12.8 0 Calma 4 Sudeste 0 968.1 -0.3 99
2019-09-25 02:00:00 12.8 0 Calma 8 Oeste 0.1 968 -0.4 99
2019-09-25 01:00:00 13 0 Calma 6 Oeste 0.7 968.2 -0.1 99
2019-09-25 00:00:00 13.3 0 Calma 6 Oeste 0.6 968.4 0.6 97
2019-09-24 23:00:00 13.6 0 Calma 23 Noroeste 0.1 968.4 1.1 97
2019-09-24 22:00:00 14.4 0 Calma 10 Oeste 0.5 968.3 1.6 94
2019-09-24 21:00:00 15.5 3 Oeste 10 Nordeste 0 967.8 1.4 79
2019-09-24 20:00:00 16.1 0 Calma 10 Nordeste 0 967.3 1 78
2019-09-24 19:00:00 16.8 2 Norte 14 Norte 0 966.7 0.5 79
2019-09-24 18:00:00 17.8 8 Noroeste 19 Oeste 0 966.4 0.8 77
2019-09-24 17:00:00 18.3 11 Oeste 21 Oeste 0 966.3 0.3 75
2019-09-24 16:00:00 19.2 6 Noroeste 32 Oeste 0 966.2 0.2 73
2019-09-24 15:00:00 21.8 0 Calma 17 Oeste 0 965.6 -0.5 53
2019-09-24 14:00:00 22.2 0 Calma 21 Oeste 0 966 0.1 52
2019-09-24 13:00:00 21.4 4 Noroeste 22 Noroeste 0 966 0.4 52
2019-09-24 12:00:00 20.3 3 Oeste 14 Noroeste 0 966.1 0.5 53
2019-09-24 11:00:00 18.9 5 Noroeste 21 Sur 0 965.9 0.4 52
2019-09-24 10:00:00 18.5 0 Calma 21 Noroeste 0 965.6 0.9 48
2019-09-24 09:00:00 18.5 2 Sur 30 Sudeste 0 965.6 1.4 50
2019-09-24 08:00:00 19.2 0 Calma 20 Norte 0 965.5 1 46
2019-09-24 07:00:00 19.8 3 Noroeste 28 Sur 0 964.7 0.2 45
2019-09-24 06:00:00 19.7 4 Noroeste 46 Sur 0 964.2 -1.3 44
2019-09-24 05:00:00 20.3 10 Sur 48 Sur 0 964.5 -1.5 42
2019-09-24 04:00:00 20.5 7 Sudeste 40 Sudeste 0 964.5 -2.3 41
2019-09-24 03:00:00 20.7 6 Sur 35 Sudoeste 0 965.5 -2.1 42
2019-09-24 02:00:00 17.4 0 Calma 12 Nordeste 0 966 -1.6 61
2019-09-24 01:00:00 17.7 0 Calma 4 Este 0 966.8 -1 58
2019-09-24 00:00:00 17.5 0 Calma 9 Oeste 0 967.6 -0.2 62
2019-09-23 23:00:00 17.4 0 Calma 7 Este 0 967.6 0 62
2019-09-23 22:00:00 16.8 0 Calma 3 Oeste 0 967.8 0.1 68
2019-09-23 21:00:00 17.4 0 Calma 4 Oeste 0 967.8 0.3 63
2019-09-23 20:00:00 18.4 0 Calma 4 Oeste 0 967.6 0.2 54
2019-09-23 19:00:00 19.7 2 Noroeste 14 Noroeste 0 967.7 -0.2 46
2019-09-23 18:00:00 20.4 2 Oeste 14 Noroeste 0 967.5 -0.5 43
2019-09-23 17:00:00 20.9 0 Calma 16 Sur 0 967.4 -0.6 43
2019-09-23 16:00:00 20.4 0 Calma 10 Sur 0 967.9 -0.4 43
2019-09-23 15:00:00 19.6 3 Oeste 18 Noroeste 0.1 968 -1 43
2019-09-23 14:00:00 19.5 2 Oeste 19 Sur 0 968 -1.1 43
2019-09-23 13:00:00 18.4 0 Calma 13 Nordeste 0 968.3 -0.9 50
2019-09-23 12:00:00 15.6 4 Sudeste 8 Este 0 969 0.3 83
2019-09-23 11:00:00 14.7 4 Sudeste 9 Sudeste 0 969.1 0.4 94
2019-09-23 10:00:00 12 0 Calma 0 Calma 0 969.2 0.8 99
2019-09-23 09:00:00 11.1 0 Calma 0 Calma 0 968.7 0.2 99
2019-09-23 08:00:00 10.8 0 Calma 0 Calma 0 968.7 0.2 99
2019-09-23 07:00:00 10.8 0 Calma 0 Calma 0 968.4 0.2 99
2019-09-23 06:00:00 10.9 0 Calma 0 Calma 0 968.5 0.1 99
2019-09-23 05:00:00 11.1 0 Calma 0 Calma 0.1 968.5 0 99
2019-09-23 04:00:00 11.2 0 Calma 4 Sudeste 0 968.2 -0.3 99
2019-09-23 03:00:00 11.4 0 Calma 0 Calma 0 968.4 -0.1 99
2019-09-23 02:00:00 11.2 0 Calma 3 Sudeste 0 968.5 0.2 99
2019-09-23 01:00:00 11.5 0 Calma 0 Calma 0 968.5 0.6 99
2019-09-23 00:00:00 12.1 0 Calma 0 Calma 0 968.5 1.3 99
2019-09-22 23:00:00 12.8 0 Calma 0 Calma 0 968.3 1.8 99
2019-09-22 22:00:00 13.1 0 Calma 3 Este 0 967.9 2 99
2019-09-22 21:00:00 13.9 0 Calma 14 Noroeste 0.2 967.2 2.1 92
2019-09-22 20:00:00 15.2 4 Noroeste 20 Noroeste 0 966.5 2.2 79
2019-09-22 19:00:00 16.3 3 Norte 22 Noroeste 0 965.9 1.4 71
2019-09-22 18:00:00 17.1 12 Noroeste 21 Noroeste 0 965.1 1.1 67
2019-09-22 17:00:00 19.4 9 Noroeste 25 Noroeste 0 964.3 0.3 56
2019-09-22 16:00:00 19.7 0 Calma 14 Norte 0 964.5 0.6 53
2019-09-22 15:00:00 18.9 7 Noroeste 17 Noroeste 0 964 0.3 52
2019-09-22 14:00:00 18.5 0 Calma 23 Oeste 0 964 0.5 55
2019-09-22 13:00:00 18.2 3 Oeste 27 Noroeste 0 963.9 1 56
2019-09-22 12:00:00 17.5 3 Oeste 17 Oeste 0 963.7 1.6 62
2019-09-22 11:00:00 15.6 0 Calma 14 Oeste 0 963.5 2.4 82
2019-09-22 10:00:00 15 4 Oeste 12 Oeste 0 962.9 2.3 99
2019-09-22 09:00:00 14.4 0 Calma 10 Sudeste 0 962.1 2.2 99
2019-09-22 08:00:00 14 2 Sur 22 Oeste 6 961.1 1.5 99
2019-09-22 07:00:00 14.1 13 Oeste 30 Oeste 3.5 960.6 1.2 99
2019-09-22 06:00:00 15 2 Oeste 27 Noroeste 3.9 959.9 0.7 99
2019-09-22 05:00:00 17.1 13 Oeste 29 Noroeste 0.5 959.6 0.7 83
2019-09-22 04:00:00 19.9 3 Sudeste 21 Sudeste 0 959.4 0.7 63
2019-09-22 03:00:00 20.4 4 Sudeste 16 Sudeste 0 959.2 0.5 60
2019-09-22 02:00:00 20.4 3 Sudeste 20 Este 0 958.9 0.2 59
2019-09-22 01:00:00 20.6 4 Sudeste 14 Sudeste 0 958.7 -0.1 56
2019-09-22 00:00:00 20.3 3 Sur 17 Sudeste 0 958.7 -0.3 55
2019-09-21 23:00:00 20.8 3 Sudeste 22 Sur 0 958.7 0.2 53
2019-09-21 22:00:00 21.4 3 Sudeste 20 Este 0 958.8 0.4 50
2019-09-21 21:00:00 21.7 2 Sur 20 Sur 0 959 0.2 49
2019-09-21 20:00:00 22.4 4 Sur 24 Sudeste 0 958.5 -0.9 50
2019-09-21 19:00:00 22.7 5 Sudeste 24 Sudeste 0 958.4 -1.1 54
2019-09-21 18:00:00 22.4 3 Sudeste 14 Sudeste 0 958.8 -1.4 56
2019-09-21 17:00:00 22.3 2 Sudeste 20 Este 0 959.4 -1.1 57
2019-09-21 16:00:00 22.5 5 Sudeste 23 Sudeste 0 959.5 -1.4 56
2019-09-21 15:00:00 23.9 4 Sudeste 28 Este 0 960.2 -1.2 49
2019-09-21 14:00:00 23.9 6 Sudeste 31 Sudeste 0 960.5 -1 54
2019-09-21 13:00:00 21.5 10 Sudeste 29 Este 0 960.9 -0.8 58
2019-09-21 12:00:00 21.3 10 Este 29 Sudeste 0 961.4 -0.3 63
2019-09-21 11:00:00 20.5 11 Sudeste 37 Sudeste 0 961.5 -0.4 67
2019-09-21 10:00:00 19.3 6 Sudeste -- -- -- 961.7 -0.5 73
2019-09-21 09:00:00 17.8 8 Sudeste 23 Este 0 961.7 -0.2 80
2019-09-21 08:00:00 17.3 6 Sudeste 19 Sudeste 0 961.9 -0.2 81
2019-09-21 07:00:00 17 4 Este 31 Este 0 962.2 -0.7 81
2019-09-21 06:00:00 16.6 4 Este 30 Sudeste 0 961.9 -1.2 84
2019-09-21 05:00:00 16 4 Este 23 Sur 0.1 962.1 -0.8 91
2019-09-21 04:00:00 16.1 0 Calma 26 Sudeste 1.1 962.9 0.2 94
2019-09-21 03:00:00 18.8 4 Sudeste 30 Sudeste 0 963.1 -1.1 67
2019-09-21 02:00:00 19 4 Sudeste 25 Sur 0 962.9 -1.6 64
2019-09-21 01:00:00 19.2 6 Sudeste 24 Este 0 962.7 -0.8 64
2019-09-21 00:00:00 20.3 7 Este 25 Este 0 964.2 1.3 56
2019-09-20 23:00:00 21.1 5 Sudeste 33 Este 0 964.5 1.8 54
2019-09-20 22:00:00 21.7 9 Sudeste 36 Este 0 963.5 0.5 57
2019-09-20 21:00:00 23.2 13 Sudeste 44 Sudeste 0 962.9 -0.2 50
2019-09-20 20:00:00 23 4 Sudeste 25 Sudeste 0 962.7 -0.5 53
2019-09-20 19:00:00 23.9 5 Sudeste 18 Sudeste 0 963 -0.9 50
2019-09-20 18:00:00 24.1 5 Sudeste 26 Sudeste 0 963.1 -1.1 49
2019-09-20 17:00:00 24.7 8 Sudeste 31 Sudeste 0 963.2 -1.8 46
2019-09-20 16:00:00 25.9 10 Sudeste 34 Este 0 963.9 -1.6 43
2019-09-20 15:00:00 25.7 9 Sudeste 37 Sudeste 0 964.2 -1.6 44
2019-09-20 14:00:00 24.8 11 Sudeste 40 Sudeste 0 965 -1.5 47
2019-09-20 13:00:00 24.3 8 Sudeste 31 Sudeste 0 965.5 -1.1 48
2019-09-20 12:00:00 23.1 9 Sudeste 28 Sudeste 0 965.8 -0.4 50
2019-09-20 11:00:00 21.1 4 Este 16 Sudeste 0 966.5 0.5 58
2019-09-20 10:00:00 20.4 4 Sudeste 19 Sudeste 0 966.6 0.9 60
2019-09-20 09:00:00 17.9 2 Sudeste 13 Este 0 966.2 0.3 71
2019-09-20 08:00:00 16.7 0 Calma 4 Sur 0 966 0 79
2019-09-20 07:00:00 16.4 0 Calma 10 Este 0 965.7 -0.8 84
2019-09-20 06:00:00 16.2 0 Calma 3 Este 0 965.9 -1.3 89
2019-09-20 05:00:00 15.2 0 Calma 3 Sur 0 966 -1.2 99
2019-09-20 04:00:00 14.5 0 Calma 0 Calma 0 966.5 -1 99
2019-09-20 03:00:00 14.3 0 Calma 0 Calma 0 967.2 -0.6 99
2019-09-20 02:00:00 14.7 0 Calma -- -- 0 967.2 -1.1 99
2019-09-20 01:00:00 14.9 0 Calma 3 Sudoeste 0 967.5 -0.6 98
2019-09-20 00:00:00 15.3 0 Calma 0 Calma 0 967.8 0 97